Time;durP1;ratioP1;P1;durP2;ratioP2;P2;SDS_P1;SDS_P2;PMS_P1;PMS_P2;Temp;Humidity;BMP_temperature;BMP_pressure;BME280_temperature;BME280_humidity;BME280_pressure;Samples;Min_cycle;Max_cycle;Signal;HPM_P1;HPM_P2
2021/10/12 00:00:32;;;;;;;3.80;1.60;;;18.70;78.80;;;;;;5072113;28;20031;-81
2021/10/12 00:02:58;;;;;;;4.00;1.80;;;18.70;78.90;;;;;;5054448;28;20032;-81
2021/10/12 00:05:24;;;;;;;2.60;1.50;;;18.70;78.90;;;;;;5072147;28;20028;-82
2021/10/12 00:07:49;;;;;;;4.38;1.50;;;18.70;78.80;;;;;;5054338;28;20028;-82
2021/10/12 00:10:15;;;;;;;5.88;1.83;;;18.70;78.80;;;;;;5072605;28;20062;-82
2021/10/12 00:12:41;;;;;;;5.05;1.70;;;18.70;78.70;;;;;;5071879;28;20400;-82
2021/10/12 00:15:07;;;;;;;3.47;1.30;;;18.70;78.70;;;;;;5073512;28;20048;-82
2021/10/12 00:17:33;;;;;;;2.67;1.45;;;18.70;78.70;;;;;;5071908;28;20093;-82
2021/10/12 00:19:59;;;;;;;3.67;1.55;;;18.70;78.70;;;;;;5072140;28;20049;-82
2021/10/12 00:22:25;;;;;;;3.88;1.30;;;18.60;78.60;;;;;;5071891;28;20464;-81
2021/10/12 00:24:50;;;;;;;4.70;1.50;;;18.60;78.60;;;;;;5072006;28;20056;-81
2021/10/12 00:27:16;;;;;;;3.00;1.67;;;18.60;79.30;;;;;;5072193;28;20020;-81
2021/10/12 00:29:42;;;;;;;4.18;1.60;;;18.60;78.50;;;;;;5072603;28;20503;-82
2021/10/12 00:32:09;;;;;;;3.83;1.90;;;18.60;78.50;;;;;;5071832;28;20484;-81
2021/10/12 00:34:34;;;;;;;5.13;1.90;;;18.60;78.50;;;;;;5071526;28;20051;-81
2021/10/12 00:37:00;;;;;;;3.30;1.42;;;18.60;78.50;;;;;;5071786;28;20520;-81
2021/10/12 00:39:26;;;;;;;5.18;2.08;;;18.60;78.50;;;;;;5071464;28;20024;-82
2021/10/12 00:41:52;;;;;;;3.72;1.65;;;18.60;78.50;;;;;;5071754;28;20472;-82
2021/10/12 00:44:17;;;;;;;5.10;1.80;;;18.60;78.40;;;;;;5073928;28;20523;-81
2021/10/12 00:46:43;;;;;;;3.25;1.58;;;18.60;78.40;;;;;;5091635;28;20056;-81
2021/10/12 00:49:09;;;;;;;3.75;1.70;;;18.50;78.30;;;;;;5091767;28;20383;-81
2021/10/12 00:51:34;;;;;;;3.00;1.35;;;18.50;78.20;;;;;;5091596;28;20472;-82
2021/10/12 00:54:00;;;;;;;3.22;1.55;;;18.50;78.30;;;;;;5091790;28;20028;-81
2021/10/12 00:56:26;;;;;;;4.18;1.50;;;18.50;78.20;;;;;;5091537;28;20103;-82
2021/10/12 00:58:52;;;;;;;4.30;1.45;;;18.50;78.20;;;;;;5091643;28;20024;-81
2021/10/12 01:01:18;;;;;;;4.32;1.70;;;18.50;78.20;;;;;;5072241;28;20519;-81
2021/10/12 01:03:43;;;;;;;2.75;1.40;;;18.50;78.20;;;;;;5071145;28;20028;-81
2021/10/12 01:06:09;;;;;;;5.22;1.95;;;18.50;78.10;;;;;;5071429;28;20423;-81
2021/10/12 01:08:35;;;;;;;6.68;1.85;;;18.50;78.10;;;;;;5071151;28;20020;-81
2021/10/12 01:11:00;;;;;;;4.13;1.27;;;18.50;78.10;;;;;;5071292;28;20099;-81
2021/10/12 01:13:26;;;;;;;3.03;1.42;;;18.50;78.10;;;;;;5070733;28;20098;-81
2021/10/12 01:15:53;;;;;;;4.20;1.63;;;18.50;78.10;;;;;;5075265;28;20071;-81
2021/10/12 01:18:19;;;;;;;3.25;1.40;;;18.40;78.00;;;;;;5053441;28;20013;-81
2021/10/12 01:20:46;;;;;;;3.90;1.65;;;18.50;78.10;;;;;;5053447;28;20060;-81
2021/10/12 01:23:13;;;;;;;3.25;1.63;;;18.50;78.00;;;;;;5071207;28;20020;-81
2021/10/12 01:25:39;;;;;;;3.70;1.63;;;18.50;78.10;;;;;;5070927;28;20036;-81
2021/10/12 01:28:08;;;;;;;3.15;1.63;;;18.40;78.00;;;;;;5071225;28;20021;-81
2021/10/12 01:30:35;;;;;;;3.50;1.52;;;18.40;78.00;;;;;;5064730;28;20107;-82
2021/10/12 01:33:01;;;;;;;3.88;1.60;;;18.40;77.90;;;;;;5091320;28;20020;-82
2021/10/12 01:35:27;;;;;;;2.53;1.42;;;18.40;77.90;;;;;;5072845;28;20404;-81
2021/10/12 01:37:52;;;;;;;3.28;1.48;;;18.40;77.80;;;;;;5091319;28;20031;-81
2021/10/12 01:40:18;;;;;;;3.60;1.40;;;18.40;77.80;;;;;;5091474;28;20024;-81
2021/10/12 01:42:45;;;;;;;3.55;1.45;;;18.40;77.90;;;;;;5091404;28;20020;-82
2021/10/12 01:45:11;;;;;;;3.35;1.52;;;18.40;77.80;;;;;;5090593;28;20372;-81
2021/10/12 01:47:38;;;;;;;3.65;1.85;;;18.40;77.80;;;;;;5091030;28;20064;-81
2021/10/12 01:50:05;;;;;;;2.72;1.40;;;18.40;77.80;;;;;;5091111;28;20020;-81
2021/10/12 01:52:31;;;;;;;3.83;1.67;;;18.40;77.70;;;;;;5090759;28;20047;-81
2021/10/12 01:54:56;;;;;;;2.85;1.13;;;18.40;77.70;;;;;;5090969;28;20036;-81
2021/10/12 01:57:22;;;;;;;5.20;1.80;;;18.40;77.70;;;;;;5090915;28;20036;-80
2021/10/12 01:59:48;;;;;;;3.78;1.83;;;18.40;77.70;;;;;;5083500;28;20020;-81
2021/10/12 02:02:13;;;;;;;2.50;1.30;;;18.40;77.70;;;;;;5070787;28;20419;-82
2021/10/12 02:04:39;;;;;;;5.63;1.73;;;18.40;77.70;;;;;;5070622;28;20095;-82
2021/10/12 02:07:05;;;;;;;2.50;1.20;;;18.30;77.60;;;;;;5070823;28;20021;-81
2021/10/12 02:09:30;;;;;;;5.70;2.17;;;18.30;77.60;;;;;;5070551;28;20078;-81
2021/10/12 02:11:57;;;;;;;3.60;1.70;;;18.30;77.60;;;;;;5070876;28;20027;-81
2021/10/12 02:14:23;;;;;;;6.45;1.80;;;18.30;77.60;;;;;;5082868;28;20032;-81
2021/10/12 02:16:50;;;;;;;3.40;1.50;;;18.30;77.60;;;;;;5094804;28;20498;-81
2021/10/12 02:19:16;;;;;;;4.57;1.83;;;18.30;77.50;;;;;;5094873;28;20030;-82
2021/10/12 02:21:42;;;;;;;4.07;1.60;;;18.30;77.50;;;;;;5094470;28;20115;-82
2021/10/12 02:24:08;;;;;;;5.85;1.73;;;18.30;77.50;;;;;;5094666;28;20111;-82
2021/10/12 02:26:33;;;;;;;3.80;1.38;;;18.30;77.50;;;;;;5094355;28;20026;-82
2021/10/12 02:28:59;;;;;;;4.50;2.13;;;18.30;77.50;;;;;;5094456;28;20028;-82
2021/10/12 02:31:25;;;;;;;3.67;1.50;;;18.30;77.50;;;;;;5084064;28;20025;-82
2021/10/12 02:33:50;;;;;;;2.85;1.58;;;18.30;77.50;;;;;;5074221;28;20036;-82
2021/10/12 02:36:16;;;;;;;3.72;1.42;;;18.30;77.50;;;;;;5074461;28;20032;-82
2021/10/12 02:38:42;;;;;;;4.72;1.52;;;18.30;77.50;;;;;;5073768;28;20024;-83
2021/10/12 02:41:08;;;;;;;4.03;1.70;;;18.20;77.50;;;;;;5056050;28;20032;-83
2021/10/12 02:43:34;;;;;;;2.55;1.10;;;18.30;77.50;;;;;;5073770;28;20021;-82
2021/10/12 02:45:59;;;;;;;5.88;1.40;;;18.20;77.40;;;;;;5089060;28;20116;-82
2021/10/12 02:48:25;;;;;;;3.15;1.50;;;18.20;78.10;;;;;;5093881;28;20023;-82
2021/10/12 02:50:51;;;;;;;3.50;1.50;;;18.20;77.30;;;;;;5094135;28;20526;-82
2021/10/12 02:53:18;;;;;;;3.63;1.35;;;18.20;77.30;;;;;;5094345;28;20056;-82
2021/10/12 02:55:44;;;;;;;3.53;1.60;;;18.20;77.20;;;;;;5093659;28;20032;-82
2021/10/12 02:58:10;;;;;;;5.30;1.83;;;18.20;77.30;;;;;;5093967;28;20404;-81
2021/10/12 03:00:35;;;;;;;3.80;1.98;;;18.20;77.30;;;;;;5081121;28;20040;-82
2021/10/12 03:03:01;;;;;;;5.43;1.65;;;18.20;77.20;;;;;;5055488;28;20048;-82
2021/10/12 03:05:27;;;;;;;4.82;1.30;;;18.20;77.40;;;;;;5073382;28;20058;-82
2021/10/12 03:07:53;;;;;;;7.75;1.70;;;18.20;77.30;;;;;;5073489;28;20020;-82
2021/10/12 03:10:19;;;;;;;3.53;1.50;;;18.20;77.20;;;;;;5073748;28;20064;-82
2021/10/12 03:12:44;;;;;;;3.92;1.48;;;18.20;77.20;;;;;;5073674;28;20489;-82
2021/10/12 03:15:10;;;;;;;3.40;1.20;;;18.20;77.20;;;;;;5081214;28;20032;-82
2021/10/12 03:17:36;;;;;;;4.13;1.40;;;18.20;77.20;;;;;;5093336;28;20353;-82
2021/10/12 03:20:02;;;;;;;3.20;1.38;;;18.20;77.20;;;;;;5093572;28;20451;-82
2021/10/12 03:22:28;;;;;;;5.25;1.80;;;18.20;77.20;;;;;;5093198;28;20024;-82
2021/10/12 03:24:54;;;;;;;2.67;1.27;;;18.20;77.20;;;;;;5086865;28;20025;-82
2021/10/12 03:27:20;;;;;;;2.65;1.40;;;18.20;77.20;;;;;;5072910;28;20016;-82
2021/10/12 03:29:45;;;;;;;3.72;1.70;;;18.10;77.00;;;;;;5074827;28;20028;-82
2021/10/12 03:32:11;;;;;;;3.30;1.50;;;18.20;77.10;;;;;;5073038;28;20103;-82
2021/10/12 03:34:37;;;;;;;2.45;1.23;;;18.10;77.00;;;;;;5072563;28;20122;-82
2021/10/12 03:37:04;;;;;;;4.50;1.63;;;18.10;77.10;;;;;;5072876;28;20062;-82
2021/10/12 03:39:30;;;;;;;6.88;1.88;;;18.10;77.00;;;;;;5072656;28;20028;-81
2021/10/12 03:41:55;;;;;;;3.63;1.30;;;18.10;77.10;;;;;;5054884;28;20115;-82
2021/10/12 03:44:23;;;;;;;2.60;1.10;;;18.10;77.10;;;;;;5079912;28;20099;-81
2021/10/12 03:46:49;;;;;;;3.85;1.42;;;18.20;77.20;;;;;;5073095;28;20441;-81
2021/10/12 03:49:14;;;;;;;3.13;1.23;;;18.10;77.10;;;;;;5072882;28;20025;-82
2021/10/12 03:51:42;;;;;;;3.95;1.40;;;18.10;77.10;;;;;;5072324;28;20027;-81
2021/10/12 03:54:08;;;;;;;4.20;1.42;;;18.10;77.00;;;;;;5072370;28;20025;-82
2021/10/12 03:56:34;;;;;;;3.78;1.52;;;18.10;77.00;;;;;;5072308;28;20025;-81
2021/10/12 03:58:59;;;;;;;2.17;1.27;;;18.10;77.00;;;;;;5072594;28;20067;-82
2021/10/12 04:01:25;;;;;;;3.97;1.27;;;18.10;77.00;;;;;;5090249;28;20511;-82
2021/10/12 04:03:52;;;;;;;2.55;1.30;;;18.10;77.00;;;;;;5092741;28;20024;-81
2021/10/12 04:06:18;;;;;;;3.33;1.27;;;18.10;77.00;;;;;;5092746;28;20031;-81
2021/10/12 04:08:44;;;;;;;2.40;1.20;;;18.10;77.00;;;;;;5092530;28;20024;-81
2021/10/12 04:11:10;;;;;;;3.05;1.63;;;18.10;77.00;;;;;;5092609;28;20035;-81
2021/10/12 04:13:36;;;;;;;3.78;1.40;;;18.10;77.00;;;;;;5092035;28;20107;-82
2021/10/12 04:16:02;;;;;;;4.32;1.67;;;18.10;76.90;;;;;;5076808;28;20028;-82
2021/10/12 04:18:27;;;;;;;5.22;1.50;;;18.00;76.90;;;;;;5071938;28;20021;-83
2021/10/12 04:20:53;;;;;;;3.00;1.05;;;18.00;76.80;;;;;;5072033;28;20032;-82
2021/10/12 04:23:19;;;;;;;2.97;1.10;;;18.00;76.80;;;;;;5071975;28;20024;-82
2021/10/12 04:25:45;;;;;;;4.43;1.65;;;18.00;76.80;;;;;;5072008;28;20163;-82
2021/10/12 04:28:12;;;;;;;3.72;1.48;;;18.00;76.80;;;;;;5071943;28;20035;-82
2021/10/12 04:30:44;;;;;;;8.05;1.85;;;18.00;76.80;;;;;;5075797;28;20323;-82
2021/10/12 04:33:11;;;;;;;4.07;1.25;;;18.00;76.80;;;;;;5071825;28;20024;-82
2021/10/12 04:35:37;;;;;;;2.80;1.30;;;18.00;76.70;;;;;;5070580;28;20037;-82
2021/10/12 04:38:03;;;;;;;2.25;1.05;;;18.00;76.70;;;;;;5053637;28;20211;-82
2021/10/12 04:40:30;;;;;;;3.85;1.40;;;18.00;76.70;;;;;;5071497;28;20104;-82
2021/10/12 04:43:02;;;;;;;2.95;1.25;;;18.00;76.60;;;;;;5071718;28;20036;-82
2021/10/12 04:45:28;;;;;;;2.20;1.10;;;18.00;76.60;;;;;;5080934;28;20027;-82
2021/10/12 04:47:54;;;;;;;4.65;1.40;;;18.00;76.70;;;;;;5091772;28;20441;-82
2021/10/12 04:50:20;;;;;;;5.65;1.70;;;18.00;76.60;;;;;;5091828;28;20028;-82
2021/10/12 04:52:45;;;;;;;4.60;1.60;;;18.00;76.50;;;;;;5091713;28;20048;-82
2021/10/12 04:55:12;;;;;;;3.08;1.20;;;18.00;76.80;;;;;;5091643;28;20036;-82
2021/10/12 04:57:37;;;;;;;3.50;1.58;;;18.00;76.50;;;;;;5091431;28;20081;-82
2021/10/12 05:00:07;;;;;;;3.75;1.63;;;18.00;76.80;;;;;;5089712;28;20024;-82
2021/10/12 05:02:34;;;;;;;2.75;1.15;;;18.00;76.50;;;;;;5073103;28;20024;-82
2021/10/12 05:04:59;;;;;;;2.58;1.05;;;18.00;76.50;;;;;;5091441;28;20049;-82
2021/10/12 05:07:25;;;;;;;3.63;1.35;;;18.00;76.60;;;;;;5091361;28;20032;-83
2021/10/12 05:09:51;;;;;;;2.35;0.90;;;18.00;76.50;;;;;;5091742;28;20025;-83
2021/10/12 05:12:17;;;;;;;6.30;1.75;;;18.00;76.50;;;;;;5091220;28;20383;-83
2021/10/12 05:14:43;;;;;;;6.63;2.10;;;18.10;76.70;;;;;;5089462;28;20040;-82
2021/10/12 05:17:46;;;;;;;4.32;1.10;;;18.10;76.60;;;;;;5091368;28;20024;-83
2021/10/12 05:20:00;;;;;;;3.58;1.40;;;18.10;76.60;;;;;;5087265;28;20024;-83
2021/10/12 05:22:26;;;;;;;5.38;1.60;;;18.10;76.70;;;;;;5090679;28;20030;-83
2021/10/12 05:24:52;;;;;;;1.90;0.90;;;18.10;76.70;;;;;;5091373;28;20383;-82
2021/10/12 05:27:17;;;;;;;2.10;1.20;;;18.20;76.70;;;;;;5070923;28;20039;-83
2021/10/12 05:29:44;;;;;;;2.75;1.15;;;18.20;76.70;;;;;;5074325;28;20038;-83
2021/10/12 05:32:09;;;;;;;3.45;1.20;;;18.20;76.60;;;;;;5091183;28;20028;-83
2021/10/12 05:34:35;;;;;;;4.05;1.20;;;18.20;76.60;;;;;;5077486;28;20036;-83
2021/10/12 05:37:01;;;;;;;3.92;1.48;;;18.20;76.60;;;;;;5071077;28;20032;-82
2021/10/12 05:39:28;;;;;;;3.10;1.30;;;18.20;76.60;;;;;;5070673;28;20032;-82
2021/10/12 05:41:55;;;;;;;2.83;1.23;;;18.30;76.60;;;;;;5071004;28;20021;-84
2021/10/12 05:44:21;;;;;;;5.13;1.20;;;18.30;76.50;;;;;;5071102;28;20013;-82
2021/10/12 05:46:46;;;;;;;3.53;1.05;;;18.30;76.50;;;;;;5086005;28;20107;-82
2021/10/12 05:49:12;;;;;;;3.50;1.23;;;18.30;76.40;;;;;;5095258;28;20029;-82
2021/10/12 05:51:38;;;;;;;2.70;1.10;;;18.40;76.50;;;;;;5094981;28;20081;-82
2021/10/12 05:54:06;;;;;;;2.65;1.00;;;18.40;76.40;;;;;;5076396;28;20143;-82
2021/10/12 05:56:41;;;;;;;2.15;1.00;;;18.40;76.40;;;;;;5074474;28;20470;-83
2021/10/12 05:59:07;;;;;;;3.40;1.20;;;18.40;76.30;;;;;;5056761;28;20032;-83
2021/10/12 06:01:35;;;;;;;2.42;0.80;;;18.40;76.30;;;;;;5073834;28;20028;-81
2021/10/12 06:04:01;;;;;;;3.65;1.35;;;18.50;76.30;;;;;;5090256;28;20036;-81
2021/10/12 06:06:26;;;;;;;3.83;1.20;;;18.50;76.20;;;;;;5074115;28;20028;-80
2021/10/12 06:08:52;;;;;;;3.80;1.42;;;18.50;76.20;;;;;;5074883;28;20469;-83
2021/10/12 06:11:17;;;;;;;5.00;1.40;;;18.60;76.20;;;;;;5090077;28;20032;-83
2021/10/12 06:13:44;;;;;;;3.55;1.33;;;18.60;76.20;;;;;;5074112;28;20082;-83
2021/10/12 06:16:10;;;;;;;3.25;1.13;;;18.60;76.20;;;;;;5089366;28;20072;-83
2021/10/12 06:18:35;;;;;;;3.60;1.20;;;18.60;76.20;;;;;;5074188;28;20109;-83
2021/10/12 06:21:01;;;;;;;3.67;1.27;;;18.60;76.20;;;;;;5074464;28;20034;-82
2021/10/12 06:23:27;;;;;;;4.20;1.45;;;18.60;76.10;;;;;;5073690;28;20052;-82
2021/10/12 06:25:53;;;;;;;4.25;1.20;;;18.70;76.20;;;;;;5074513;28;20078;-82
2021/10/12 06:28:20;;;;;;;3.42;1.45;;;18.60;76.10;;;;;;5072977;28;20036;-81
2021/10/12 06:30:46;;;;;;;3.42;1.20;;;18.60;76.10;;;;;;5073688;28;20020;-81
2021/10/12 06:33:12;;;;;;;3.75;1.23;;;18.60;76.10;;;;;;5074166;28;20020;-81
2021/10/12 06:35:38;;;;;;;3.03;1.35;;;18.60;76.20;;;;;;5073790;28;20047;-84
2021/10/12 06:38:05;;;;;;;5.85;1.85;;;18.70;76.20;;;;;;5074117;28;20020;-81
2021/10/12 06:40:32;;;;;;;5.90;1.70;;;18.70;76.30;;;;;;5076432;28;20452;-81
2021/10/12 06:42:58;;;;;;;6.13;1.40;;;18.70;76.20;;;;;;5073085;28;20369;-81
2021/10/12 06:45:24;;;;;;;9.05;5.82;;;18.70;76.20;;;;;;5088964;28;20055;-81
2021/10/12 06:47:50;;;;;;;9.70;3.58;;;18.70;77.30;;;;;;5073294;28;20449;-80
2021/10/12 06:50:17;;;;;;;4.70;2.38;;;18.70;77.70;;;;;;5072938;28;20420;-81
2021/10/12 06:52:42;;;;;;;6.75;2.47;;;18.70;77.80;;;;;;5054946;28;20028;-81
2021/10/12 06:55:09;;;;;;;6.78;2.42;;;18.70;77.70;;;;;;5073377;28;20045;-80
2021/10/12 06:57:36;;;;;;;6.82;2.10;;;18.70;77.60;;;;;;5071690;28;20404;-81
2021/10/12 07:00:07;;;;;;;5.05;2.35;;;18.70;77.60;;;;;;5073221;28;20025;-80
2021/10/12 07:02:32;;;;;;;4.18;1.77;;;18.70;77.70;;;;;;5073408;28;20012;-80
2021/10/12 07:04:58;;;;;;;9.48;2.60;;;18.70;77.60;;;;;;5073630;28;20134;-80
2021/10/12 07:07:24;;;;;;;6.10;2.17;;;18.70;77.40;;;;;;5054327;28;20511;-80
2021/10/12 07:09:49;;;;;;;6.55;2.42;;;18.70;77.30;;;;;;5053445;28;20025;-80
2021/10/12 07:12:15;;;;;;;6.38;2.05;;;18.70;77.20;;;;;;5053201;28;20025;-80
2021/10/12 07:14:41;;;;;;;6.70;2.40;;;18.70;77.00;;;;;;5053002;28;20041;-80
2021/10/12 07:17:06;;;;;;;5.88;1.90;;;18.70;76.90;;;;;;5053401;28;20017;-80
2021/10/12 07:19:32;;;;;;;7.10;1.90;;;18.70;76.80;;;;;;5052943;28;20028;-80
2021/10/12 07:21:58;;;;;;;6.88;2.53;;;18.70;76.80;;;;;;5053132;28;20033;-80
2021/10/12 07:24:23;;;;;;;7.20;1.90;;;18.70;76.80;;;;;;5058110;28;20024;-78
2021/10/12 07:26:50;;;;;;;4.90;1.70;;;18.70;76.80;;;;;;5071865;28;20031;-78
2021/10/12 07:29:17;;;;;;;6.30;1.98;;;18.70;76.80;;;;;;5072747;28;20072;-78
2021/10/12 07:31:43;;;;;;;5.15;1.88;;;18.70;76.80;;;;;;5072608;28;20068;-79
2021/10/12 07:34:09;;;;;;;9.82;2.00;;;18.70;76.80;;;;;;5072938;28;20533;-78
2021/10/12 07:36:35;;;;;;;6.95;2.20;;;18.70;76.70;;;;;;5072754;28;20031;-79
2021/10/12 07:39:02;;;;;;;5.88;2.13;;;18.70;76.70;;;;;;5072845;28;20530;-78
2021/10/12 07:41:28;;;;;;;5.07;1.95;;;18.60;76.60;;;;;;5072663;28;20127;-78
2021/10/12 07:43:54;;;;;;;5.63;1.95;;;18.70;76.60;;;;;;5073056;28;20025;-79
2021/10/12 07:46:19;;;;;;;5.45;2.03;;;18.70;76.70;;;;;;5072163;28;20035;-78
2021/10/12 07:48:45;;;;;;;4.85;1.85;;;18.60;76.60;;;;;;5072794;28;20033;-78
2021/10/12 07:51:10;;;;;;;3.67;1.48;;;18.70;76.70;;;;;;5054773;28;20368;-78
2021/10/12 07:53:38;;;;;;;5.90;2.30;;;18.60;76.60;;;;;;5071670;28;20530;-78
2021/10/12 07:56:09;;;;;;;8.43;2.00;;;18.60;76.50;;;;;;5072684;28;20066;-78
2021/10/12 07:58:34;;;;;;;5.25;1.77;;;18.60;76.50;;;;;;5072404;28;20488;-78
2021/10/12 08:01:03;;;;;;;3.95;1.60;;;18.60;76.40;;;;;;5071768;28;20028;-78
2021/10/12 08:03:28;;;;;;;7.55;1.77;;;18.60;77.20;;;;;;5072148;28;20032;-79
2021/10/12 08:05:54;;;;;;;4.88;1.73;;;18.60;76.50;;;;;;5072713;28;20020;-79
2021/10/12 08:08:20;;;;;;;8.07;2.05;;;18.60;76.40;;;;;;5054041;28;20082;-79
2021/10/12 08:10:46;;;;;;;5.07;1.77;;;18.60;76.50;;;;;;5072259;28;20392;-79
2021/10/12 08:13:16;;;;;;;5.68;1.67;;;18.60;76.40;;;;;;5071571;28;20062;-79
2021/10/12 08:15:44;;;;;;;4.43;1.85;;;18.60;76.40;;;;;;5071164;28;20547;-79
2021/10/12 08:18:10;;;;;;;3.47;1.42;;;18.60;76.40;;;;;;5072092;28;20546;-79
2021/10/12 08:20:35;;;;;;;5.68;1.42;;;18.60;76.40;;;;;;5071602;28;20024;-78
2021/10/12 08:23:01;;;;;;;5.30;1.50;;;18.60;76.50;;;;;;5073077;28;20384;-80
2021/10/12 08:25:26;;;;;;;4.82;1.90;;;18.50;76.40;;;;;;5072038;28;20020;-81
2021/10/12 08:27:52;;;;;;;5.00;1.75;;;18.50;76.50;;;;;;5071548;28;20556;-81
2021/10/12 08:30:18;;;;;;;6.15;1.65;;;18.50;76.70;;;;;;5071077;28;20028;-81
2021/10/12 08:32:44;;;;;;;8.00;1.88;;;18.50;76.90;;;;;;5087593;28;20021;-81
2021/10/12 08:35:11;;;;;;;3.53;1.42;;;18.50;76.90;;;;;;5070842;28;20089;-82
2021/10/12 08:37:38;;;;;;;7.15;1.92;;;18.50;76.80;;;;;;5071375;28;20032;-82
2021/10/12 08:40:08;;;;;;;6.38;1.90;;;18.50;76.70;;;;;;5071706;28;20397;-82
2021/10/12 08:42:38;;;;;;;5.25;1.83;;;18.50;76.70;;;;;;5071229;28;20039;-82
2021/10/12 08:45:07;;;;;;;5.60;1.70;;;18.50;76.70;;;;;;5071602;28;20024;-82
2021/10/12 08:47:34;;;;;;;4.78;1.48;;;18.50;76.60;;;;;;5070497;28;20564;-83
2021/10/12 08:50:02;;;;;;;4.55;1.52;;;18.50;76.60;;;;;;5053046;28;20060;-81
2021/10/12 08:52:28;;;;;;;3.70;1.50;;;18.50;76.60;;;;;;5071440;28;20423;-81
2021/10/12 08:54:55;;;;;;;4.95;1.92;;;18.50;77.40;;;;;;5071417;28;20054;-82
2021/10/12 08:57:28;;;;;;;4.90;1.70;;;18.50;76.60;;;;;;5071186;28;20078;-82
2021/10/12 08:59:55;;;;;;;5.25;2.42;;;18.50;76.50;;;;;;5071195;28;20032;-81
2021/10/12 09:02:24;;;;;;;5.68;1.73;;;18.50;76.50;;;;;;5070454;28;20032;-82
2021/10/12 09:04:50;;;;;;;3.92;1.70;;;18.50;76.50;;;;;;5070897;28;20043;-82
2021/10/12 09:07:29;;;;;;;4.63;1.50;;;18.50;76.50;;;;;;5071191;28;20039;-82
2021/10/12 09:09:57;;;;;;;4.25;1.67;;;18.50;76.40;;;;;;5071588;28;20021;-81
2021/10/12 09:12:46;;;;;;;6.45;1.67;;;18.50;76.40;;;;;;5071001;28;20020;-83
2021/10/12 09:15:12;;;;;;;3.10;1.55;;;18.50;76.40;;;;;;5070973;28;20052;-81
2021/10/12 09:17:40;;;;;;;4.38;1.73;;;18.50;76.40;;;;;;5050732;28;20059;-82
2021/10/12 09:20:12;;;;;;;5.25;1.92;;;18.50;76.30;;;;;;5040413;28;20113;-81
2021/10/12 09:23:01;;;;;;;4.45;1.77;;;18.50;76.20;;;;;;5070499;28;20488;-82
2021/10/12 09:25:34;;;;;;;3.58;1.50;;;18.50;76.20;;;;;;5070933;28;20365;-82
2021/10/12 09:27:59;;;;;;;3.22;1.33;;;18.50;76.10;;;;;;5071367;28;20111;-82
2021/10/12 09:30:30;;;;;;;5.78;2.00;;;18.60;76.20;;;;;;5070764;28;20099;-82
2021/10/12 09:33:04;;;;;;;3.78;1.50;;;18.50;76.00;;;;;;5071330;28;20055;-82
2021/10/12 09:35:32;;;;;;;4.97;1.73;;;18.60;76.00;;;;;;5069959;28;20036;-82
2021/10/12 09:38:09;;;;;;;3.60;1.60;;;18.60;76.00;;;;;;5053022;28;20024;-81
2021/10/12 09:40:40;;;;;;;5.35;1.52;;;18.60;75.90;;;;;;5052623;28;20020;-82
2021/10/12 09:43:06;;;;;;;5.97;1.52;;;18.60;76.00;;;;;;5071034;28;20025;-82
2021/10/12 09:45:41;;;;;;;5.70;1.77;;;18.60;76.00;;;;;;5070666;28;20070;-82
2021/10/12 09:48:33;;;;;;;4.22;1.80;;;18.60;75.80;;;;;;5071004;28;20056;-83
2021/10/12 09:51:16;;;;;;;3.42;1.42;;;18.60;75.80;;;;;;5070523;28;20043;-82
2021/10/12 09:53:44;;;;;;;4.50;1.25;;;18.60;75.80;;;;;;5070478;28;20028;-81
2021/10/12 09:56:10;;;;;;;5.28;2.08;;;18.60;75.80;;;;;;5070861;28;20037;-83
2021/10/12 09:58:38;;;;;;;5.88;1.92;;;18.60;75.80;;;;;;5052551;28;20029;-82
2021/10/12 10:01:06;;;;;;;4.07;1.48;;;18.60;75.70;;;;;;5070811;28;20032;-81
2021/10/12 10:03:32;;;;;;;5.22;1.83;;;18.60;75.70;;;;;;5070280;28;20027;-82
2021/10/12 10:06:09;;;;;;;4.55;1.77;;;18.60;75.70;;;;;;5070513;28;20039;-82
2021/10/12 10:08:44;;;;;;;3.90;1.77;;;18.70;75.80;;;;;;5070507;28;20046;-82
2021/10/12 10:11:10;;;;;;;3.88;1.45;;;18.70;75.70;;;;;;5069748;28;20052;-82
2021/10/12 10:13:38;;;;;;;3.55;1.45;;;18.60;75.60;;;;;;5070188;28;20037;-82
2021/10/12 10:16:08;;;;;;;4.63;1.50;;;18.70;75.50;;;;;;5070288;28;20050;-82
2021/10/12 10:18:36;;;;;;;4.03;1.48;;;18.70;75.50;;;;;;5070353;28;20089;-81
2021/10/12 10:21:02;;;;;;;3.78;1.42;;;18.70;75.50;;;;;;5070890;28;20024;-86
2021/10/12 10:24:07;;;;;;;4.55;1.70;;;18.70;75.40;;;;;;5053043;28;20162;-85
2021/10/12 10:26:36;;;;;;;5.25;1.85;;;18.80;75.40;;;;;;5078861;28;20022;-84
2021/10/12 10:29:28;;;;;;;4.10;1.48;;;18.80;75.40;;;;;;5074844;28;20040;-83
2021/10/12 10:31:58;;;;;;;3.22;1.50;;;18.80;75.30;;;;;;5032981;28;20029;-84
2021/10/12 10:34:32;;;;;;;4.13;1.40;;;18.80;75.50;;;;;;5058510;28;20028;-83
2021/10/12 10:37:16;;;;;;;6.07;1.65;;;18.80;76.30;;;;;;5074023;28;20040;-84
2021/10/12 10:40:14;;;;;;;4.68;1.73;;;18.80;75.60;;;;;;5074764;28;20035;-83
2021/10/12 10:42:41;;;;;;;6.63;1.50;;;18.80;75.60;;;;;;5074726;28;20051;-82
2021/10/12 10:45:07;;;;;;;5.57;1.80;;;18.90;75.70;;;;;;5074049;28;20013;-82
2021/10/12 10:47:50;;;;;;;5.18;1.55;;;18.90;75.80;;;;;;5074035;28;20024;-82
2021/10/12 10:50:16;;;;;;;7.50;1.50;;;18.90;75.80;;;;;;5073463;28;20028;-83
2021/10/12 10:52:45;;;;;;;6.28;2.00;;;18.90;75.80;;;;;;5073423;28;20036;-83
2021/10/12 10:55:18;;;;;;;3.78;1.80;;;18.90;75.80;;;;;;5073551;28;20029;-83
2021/10/12 10:58:08;;;;;;;3.42;1.27;;;18.90;75.90;;;;;;5073537;28;20026;-82
2021/10/12 11:00:37;;;;;;;6.07;1.60;;;18.90;76.00;;;;;;5053649;28;20025;-83
2021/10/12 11:03:03;;;;;;;5.15;1.83;;;18.90;76.00;;;;;;5053900;28;20021;-83
2021/10/12 11:05:45;;;;;;;5.68;1.80;;;18.80;76.00;;;;;;5049929;28;20130;-84
2021/10/12 11:08:14;;;;;;;4.00;1.38;;;18.80;76.10;;;;;;5073024;28;20496;-83
2021/10/12 11:10:41;;;;;;;5.90;1.42;;;18.80;76.20;;;;;;5072924;28;20027;-83
2021/10/12 11:13:06;;;;;;;7.35;1.90;;;18.80;76.30;;;;;;5073336;28;20048;-83
2021/10/12 11:15:32;;;;;;;4.63;1.67;;;18.80;76.40;;;;;;5055334;28;20029;-83
2021/10/12 11:18:05;;;;;;;7.30;1.40;;;18.80;76.60;;;;;;5073356;28;20488;-83
2021/10/12 11:20:48;;;;;;;3.83;1.38;;;18.80;76.70;;;;;;5072783;28;20035;-82
2021/10/12 11:23:25;;;;;;;3.03;1.27;;;18.80;76.70;;;;;;5073318;28;20032;-83
2021/10/12 11:26:21;;;;;;;5.95;1.52;;;18.80;76.70;;;;;;5073200;28;20476;-82
2021/10/12 11:28:51;;;;;;;4.28;1.17;;;18.70;76.80;;;;;;5069472;28;20397;-83
2021/10/12 11:31:19;;;;;;;4.38;1.30;;;18.80;76.90;;;;;;5073635;28;20029;-83
2021/10/12 11:33:50;;;;;;;3.97;1.30;;;18.80;76.70;;;;;;5073034;28;20464;-82
2021/10/12 11:36:18;;;;;;;3.25;1.13;;;18.80;76.70;;;;;;5072894;28;20028;-83
2021/10/12 11:38:45;;;;;;;2.15;1.20;;;18.90;76.60;;;;;;5072969;28;20025;-82
2021/10/12 11:41:16;;;;;;;5.13;1.67;;;18.90;76.40;;;;;;5072890;28;20021;-82
2021/10/12 11:43:43;;;;;;;6.00;1.90;;;18.90;76.40;;;;;;5072429;28;20021;-83
2021/10/12 11:46:09;;;;;;;3.78;1.60;;;18.90;76.50;;;;;;5072432;28;20098;-82
2021/10/12 11:48:39;;;;;;;4.40;1.50;;;18.90;76.60;;;;;;5071021;28;20033;-84
2021/10/12 11:51:21;;;;;;;2.95;1.30;;;18.80;76.60;;;;;;5072563;28;20020;-83
2021/10/12 11:53:49;;;;;;;5.53;1.40;;;18.80;76.70;;;;;;5073321;28;20035;-83
2021/10/12 11:56:16;;;;;;;3.03;1.40;;;18.80;76.70;;;;;;5072376;28;20081;-83
2021/10/12 11:58:42;;;;;;;4.22;1.25;;;18.90;77.20;;;;;;5070447;28;20389;-83
2021/10/12 12:01:10;;;;;;;3.60;1.40;;;19.10;76.40;;;;;;5072928;28;20024;-83
2021/10/12 12:03:36;;;;;;;3.90;1.67;;;19.40;76.50;;;;;;5072241;28;20021;-79
2021/10/12 12:06:02;;;;;;;5.38;2.00;;;19.60;74.40;;;;;;5053072;28;20492;-81
2021/10/12 12:08:30;;;;;;;6.38;1.63;;;19.60;74.30;;;;;;5072060;28;20115;-81
2021/10/12 12:10:57;;;;;;;5.85;1.40;;;19.50;74.40;;;;;;5072239;28;20016;-81
2021/10/12 12:13:28;;;;;;;2.47;1.25;;;19.50;75.50;;;;;;5071822;28;20499;-81
2021/10/12 12:15:54;;;;;;;5.78;1.60;;;19.40;74.80;;;;;;5072189;28;20035;-81
2021/10/12 12:18:22;;;;;;;4.10;1.40;;;19.40;75.10;;;;;;5071858;28;20389;-81
2021/10/12 12:21:06;;;;;;;3.50;1.25;;;19.30;75.10;;;;;;5071482;28;20048;-80
2021/10/12 12:23:47;;;;;;;4.47;1.58;;;19.80;75.50;;;;;;5071636;28;20020;-81
2021/10/12 12:26:24;;;;;;;4.53;1.83;;;20.80;71.40;;;;;;5072124;28;20029;-80
2021/10/12 12:28:50;;;;;;;2.15;1.02;;;21.30;67.90;;;;;;5071844;28;20020;-81
2021/10/12 12:31:19;;;;;;;2.10;1.02;;;21.00;68.50;;;;;;5071969;28;20035;-81
2021/10/12 12:33:47;;;;;;;4.63;1.92;;;20.70;69.60;;;;;;5071690;28;20028;-80
2021/10/12 12:36:13;;;;;;;4.07;1.58;;;20.50;70.10;;;;;;5070406;28;20044;-80
2021/10/12 12:38:41;;;;;;;6.85;1.65;;;20.30;70.80;;;;;;5071512;28;20384;-80
2021/10/12 12:41:16;;;;;;;5.32;1.85;;;20.30;71.30;;;;;;5071994;28;20021;-80
2021/10/12 12:44:01;;;;;;;2.90;1.38;;;20.20;71.30;;;;;;5071556;28;20020;-80
2021/10/12 12:46:26;;;;;;;3.13;1.25;;;20.20;71.50;;;;;;5071321;28;20032;-80
2021/10/12 12:49:10;;;;;;;2.15;0.90;;;20.20;71.40;;;;;;5071339;28;20029;-80
2021/10/12 12:51:47;;;;;;;4.15;1.35;;;20.20;71.60;;;;;;5051441;28;20029;-81